Time;durP1;ratioP1;P1;durP2;ratioP2;P2;SDS_P1;SDS_P2;PMS_P1;PMS_P2;Temp;Humidity;BMP_temperature;BMP_pressure;BME280_temperature;BME280_humidity;BME280_pressure;Samples;Min_cycle;Max_cycle;Signal;HPM_P1;HPM_P2
2022/03/06 00:01:25;;;;;;;75.38;54.92;;;16.90;48.70;;;;;;4997773;28;90141;-71
2022/03/06 00:03:51;;;;;;;76.53;55.78;;;17.00;48.80;;;;;;4983904;27;90440;-70
2022/03/06 00:06:17;;;;;;;77.47;56.63;;;16.90;48.80;;;;;;4995287;28;89415;-70
2022/03/06 00:08:43;;;;;;;73.70;55.28;;;16.90;48.70;;;;;;4990602;28;89745;-70
2022/03/06 00:11:09;;;;;;;76.70;56.38;;;16.90;48.70;;;;;;4994611;28;96145;-70
2022/03/06 00:13:35;;;;;;;75.47;55.78;;;16.90;48.50;;;;;;4988210;28;90589;-70
2022/03/06 00:16:01;;;;;;;74.93;55.78;;;16.90;48.80;;;;;;4995502;28;90376;-70
2022/03/06 00:18:27;;;;;;;75.28;56.13;;;16.80;48.70;;;;;;4981829;28;90904;-70
2022/03/06 00:20:58;;;;;;;78.40;56.35;;;16.80;48.80;;;;;;4993436;28;90666;-70
2022/03/06 00:23:24;;;;;;;;;;;16.80;48.70;;;;;;4990459;28;90798;-71
2022/03/06 00:25:50;;;;;;;75.53;55.85;;;16.80;48.80;;;;;;4995388;28;89839;-71
2022/03/06 00:28:15;;;;;;;75.60;56.45;;;16.80;48.90;;;;;;4987567;28;91845;-70
2022/03/06 00:30:42;;;;;;;75.97;56.53;;;16.70;48.80;;;;;;4994846;28;91209;-70
2022/03/06 00:33:08;;;;;;;75.35;56.35;;;16.70;48.90;;;;;;4993207;28;90838;-70
2022/03/06 00:35:34;;;;;;;76.47;56.00;;;16.70;48.70;;;;;;4983937;28;97896;-70
2022/03/06 00:38:00;;;;;;;77.32;56.65;;;16.70;48.90;;;;;;4990139;28;89895;-70
2022/03/06 00:40:26;;;;;;;76.05;56.53;;;16.70;48.80;;;;;;4997662;28;89382;-70
2022/03/06 00:42:52;;;;;;;76.10;56.35;;;16.60;48.90;;;;;;4991541;28;91000;-70
2022/03/06 00:45:18;;;;;;;75.72;55.80;;;16.60;49.00;;;;;;4991819;28;90657;-70
2022/03/06 00:47:44;;;;;;;77.70;56.83;;;16.60;49.00;;;;;;4992254;28;93169;-70
2022/03/06 00:50:10;;;;;;;75.75;56.28;;;16.60;49.10;;;;;;4984156;28;93237;-70
2022/03/06 00:52:36;;;;;;;77.03;56.60;;;16.50;49.00;;;;;;4992620;28;93404;-70
2022/03/06 00:55:02;;;;;;;75.00;55.58;;;16.50;48.80;;;;;;4987925;28;90184;-70
2022/03/06 00:57:28;;;;;;;76.57;56.00;;;16.60;49.10;;;;;;4992774;28;97048;-70
2022/03/06 00:59:54;;;;;;;74.20;55.72;;;16.60;49.00;;;;;;4991174;28;91300;-70
2022/03/06 01:02:19;;;;;;;77.20;56.70;;;16.50;49.00;;;;;;4987899;28;90786;-70
2022/03/06 01:04:46;;;;;;;73.40;55.58;;;16.50;49.20;;;;;;4994230;28;89394;-70
2022/03/06 01:07:11;;;;;;;76.80;56.22;;;16.50;49.10;;;;;;4989203;28;89572;-70
2022/03/06 01:09:37;;;;;;;75.10;55.70;;;16.50;49.10;;;;;;4983763;28;91752;-70
2022/03/06 01:12:03;;;;;;;76.38;56.63;;;16.50;49.20;;;;;;4991260;28;89862;-71
2022/03/06 01:14:28;;;;;;;73.93;54.83;;;16.50;49.10;;;;;;4986358;28;91331;-70
2022/03/06 01:16:54;;;;;;;74.65;54.95;;;16.50;49.10;;;;;;4990856;28;88462;-70
2022/03/06 01:19:20;;;;;;;78.72;56.33;;;16.50;49.10;;;;;;4980089;28;90598;-70
2022/03/06 01:21:46;;;;;;;75.80;56.20;;;16.50;49.00;;;;;;4987394;28;90561;-70
2022/03/06 01:24:12;;;;;;;76.13;55.92;;;16.60;49.10;;;;;;4985095;28;90970;-70
2022/03/06 01:26:37;;;;;;;75.22;55.85;;;16.60;49.00;;;;;;4993984;28;89521;-70
2022/03/06 01:29:03;;;;;;;76.63;55.50;;;16.60;48.90;;;;;;4982423;28;89922;-70
2022/03/06 01:31:29;;;;;;;73.65;55.70;;;16.60;48.80;;;;;;4948659;28;1170522;-71
2022/03/06 01:33:55;;;;;;;76.88;56.45;;;16.70;48.80;;;;;;4987906;28;90292;-70
2022/03/06 01:36:20;;;;;;;78.65;56.78;;;16.70;48.80;;;;;;4989686;28;89695;-70
2022/03/06 01:38:46;;;;;;;74.35;55.17;;;16.70;48.70;;;;;;4990783;28;89552;-70
2022/03/06 01:41:12;;;;;;;74.22;55.40;;;16.80;49.30;;;;;;4989260;28;89868;-70
2022/03/06 01:43:37;;;;;;;75.47;55.75;;;16.80;48.70;;;;;;5004456;28;90557;-70
2022/03/06 01:46:03;;;;;;;76.68;56.35;;;16.80;48.50;;;;;;4995229;28;90626;-70
2022/03/06 01:48:28;;;;;;;76.43;56.17;;;16.80;48.40;;;;;;4990353;28;91304;-70
2022/03/06 01:50:54;;;;;;;75.07;55.63;;;16.80;48.30;;;;;;4982868;28;91537;-70
2022/03/06 01:53:20;;;;;;;74.25;55.53;;;16.90;48.30;;;;;;4987557;28;90437;-71
2022/03/06 01:55:47;;;;;;;78.70;55.92;;;16.90;48.20;;;;;;4992450;28;90362;-70
2022/03/06 01:58:13;;;;;;;75.10;55.33;;;16.90;48.10;;;;;;4988761;28;92453;-70
2022/03/06 02:00:42;;;;;;;74.97;55.85;;;16.80;48.00;;;;;;4983184;28;91933;-70
2022/03/06 02:03:08;;;;;;;73.40;55.17;;;16.80;48.10;;;;;;4989749;28;90227;-70
2022/03/06 02:05:33;;;;;;;76.95;56.25;;;16.80;48.20;;;;;;4990951;28;89764;-70
2022/03/06 02:07:59;;;;;;;73.25;54.92;;;16.80;48.10;;;;;;4991821;28;89751;-70
2022/03/06 02:10:25;;;;;;;78.68;56.78;;;16.80;48.20;;;;;;4991858;28;95980;-72
2022/03/06 02:12:51;;;;;;;76.25;55.03;;;16.80;48.10;;;;;;4990661;28;90891;-70
2022/03/06 02:15:17;;;;;;;79.00;56.60;;;16.80;48.20;;;;;;4989043;28;91238;-70
2022/03/06 02:17:44;;;;;;;78.13;55.90;;;16.80;48.20;;;;;;4991546;28;90642;-70
2022/03/06 02:20:15;;;;;;;74.03;54.92;;;16.80;48.10;;;;;;4984293;28;91721;-70
2022/03/06 02:22:44;;;;;;;76.10;56.08;;;16.80;48.10;;;;;;4991801;28;89754;-70
2022/03/06 02:25:25;;;;;;;75.90;55.97;;;16.80;48.20;;;;;;4988618;28;90425;-70
2022/03/06 02:27:53;;;;;;;74.72;54.78;;;16.80;48.20;;;;;;4991184;28;90448;-70
2022/03/06 02:30:30;;;;;;;72.70;54.63;;;16.70;48.10;;;;;;4987234;28;91172;-70
2022/03/06 02:32:58;;;;;;;74.05;55.58;;;16.80;48.20;;;;;;4995506;28;89967;-70
2022/03/06 02:35:25;;;;;;;73.50;55.25;;;16.70;48.20;;;;;;4984852;28;91819;-70
2022/03/06 02:37:51;;;;;;;75.32;54.65;;;16.70;48.20;;;;;;4990007;28;94852;-70
2022/03/06 02:40:18;;;;;;;74.35;55.20;;;16.70;48.20;;;;;;4989934;28;89670;-70
2022/03/06 02:42:46;;;;;;;74.18;55.05;;;16.70;48.20;;;;;;4987747;28;90182;-70
2022/03/06 02:45:18;;;;;;;75.45;55.47;;;16.70;48.10;;;;;;4988380;28;90665;-70
2022/03/06 02:47:45;;;;;;;71.63;54.25;;;16.70;48.10;;;;;;4993827;28;97967;-70
2022/03/06 02:50:14;;;;;;;74.22;55.30;;;16.70;48.20;;;;;;4985980;28;90687;-70
2022/03/06 02:52:39;;;;;;;73.75;54.97;;;16.60;48.10;;;;;;4988420;28;89904;-70
2022/03/06 02:55:07;;;;;;;74.60;55.63;;;16.50;48.20;;;;;;4992259;28;88879;-70
2022/03/06 02:57:33;;;;;;;73.28;54.50;;;16.50;48.20;;;;;;4992601;28;90484;-70
2022/03/06 02:59:58;;;;;;;74.65;55.83;;;16.50;48.30;;;;;;4980729;28;90611;-70
2022/03/06 03:02:24;;;;;;;74.45;55.67;;;16.50;48.30;;;;;;4993020;28;90724;-70
2022/03/06 03:04:50;;;;;;;75.20;55.60;;;16.50;48.30;;;;;;4990175;28;89751;-70
2022/03/06 03:07:15;;;;;;;76.13;56.33;;;16.50;48.40;;;;;;4996826;28;89835;-70
2022/03/06 03:09:41;;;;;;;74.32;54.95;;;16.50;48.50;;;;;;4985954;28;91383;-70
2022/03/06 03:12:07;;;;;;;73.28;54.20;;;16.50;48.50;;;;;;4994340;28;90755;-70
2022/03/06 03:14:35;;;;;;;73.85;55.42;;;16.40;48.40;;;;;;4988443;28;90495;-70
2022/03/06 03:17:02;;;;;;;72.57;54.63;;;16.40;48.50;;;;;;4991785;28;93321;-70
2022/03/06 03:19:28;;;;;;;75.45;55.33;;;16.50;48.50;;;;;;4982887;28;90785;-70
2022/03/06 03:21:55;;;;;;;73.03;54.45;;;16.50;48.50;;;;;;4986384;27;90179;-70
2022/03/06 03:24:21;;;;;;;74.32;54.63;;;16.40;48.50;;;;;;4985279;28;90788;-70
2022/03/06 03:26:47;;;;;;;73.20;54.38;;;16.50;48.60;;;;;;4989176;28;92975;-70
2022/03/06 03:29:13;;;;;;;74.95;55.42;;;16.50;48.40;;;;;;4988095;28;94936;-70
2022/03/06 03:31:38;;;;;;;73.63;55.08;;;16.50;48.20;;;;;;4988668;28;90379;-70
2022/03/06 03:34:04;;;;;;;73.15;54.72;;;16.60;48.30;;;;;;4991699;28;89863;-70
2022/03/06 03:36:30;;;;;;;72.35;54.47;;;16.60;48.20;;;;;;4991829;28;90908;-70
2022/03/06 03:38:56;;;;;;;72.68;55.03;;;16.70;48.30;;;;;;4990589;28;90561;-71
2022/03/06 03:41:24;;;;;;;74.07;55.47;;;16.70;48.10;;;;;;4993448;28;90072;-70
2022/03/06 03:43:51;;;;;;;73.68;54.70;;;16.70;48.10;;;;;;4995093;28;89709;-70
2022/03/06 03:46:17;;;;;;;73.82;54.95;;;16.80;47.90;;;;;;4994628;28;93075;-70
2022/03/06 03:48:42;;;;;;;75.07;55.65;;;16.80;47.90;;;;;;4988808;28;90115;-70
2022/03/06 03:51:08;;;;;;;74.80;55.17;;;16.80;47.60;;;;;;4984847;28;91357;-70
2022/03/06 03:53:34;;;;;;;72.05;54.33;;;16.80;47.70;;;;;;4990959;28;90469;-70
2022/03/06 03:56:00;;;;;;;72.63;54.95;;;16.80;47.70;;;;;;4995299;28;98970;-70
2022/03/06 03:58:25;;;;;;;73.22;55.28;;;16.80;47.50;;;;;;4990247;28;89877;-70
2022/03/06 04:00:54;;;;;;;75.72;55.58;;;16.90;47.60;;;;;;4983665;28;89971;-70
2022/03/06 04:03:20;;;;;;;73.60;54.83;;;16.90;47.50;;;;;;4992507;28;90300;-70
2022/03/06 04:05:46;;;;;;;72.97;55.88;;;16.90;47.50;;;;;;4988688;28;90489;-70
2022/03/06 04:08:11;;;;;;;73.55;55.22;;;16.90;47.60;;;;;;4992095;28;91240;-70
2022/03/06 04:10:37;;;;;;;73.20;54.60;;;16.90;47.50;;;;;;4978580;28;89471;-70
2022/03/06 04:13:03;;;;;;;74.68;55.85;;;16.90;47.30;;;;;;4991734;28;89562;-70
2022/03/06 04:15:28;;;;;;;74.00;55.22;;;16.90;47.30;;;;;;4985401;28;92450;-71
2022/03/06 04:17:54;;;;;;;74.60;54.88;;;16.80;47.10;;;;;;4994283;28;90766;-70
2022/03/06 04:20:19;;;;;;;74.20;55.42;;;16.80;47.40;;;;;;4985476;28;89797;-70
2022/03/06 04:22:45;;;;;;;71.90;54.40;;;16.80;47.30;;;;;;4992793;28;89996;-70
2022/03/06 04:25:11;;;;;;;69.70;53.75;;;16.80;47.40;;;;;;4993012;28;91218;-70
2022/03/06 04:27:36;;;;;;;71.53;54.58;;;16.80;47.60;;;;;;4991000;28;90898;-70
2022/03/06 04:30:03;;;;;;;73.55;55.17;;;16.80;47.40;;;;;;4990164;28;90181;-70
2022/03/06 04:32:29;;;;;;;73.55;54.63;;;16.80;47.40;;;;;;4993619;28;88927;-70
2022/03/06 04:34:54;;;;;;;73.07;54.35;;;16.70;47.30;;;;;;4987917;28;89941;-70
2022/03/06 04:37:20;;;;;;;74.07;55.20;;;16.70;47.50;;;;;;4998646;28;89965;-70
2022/03/06 04:39:45;;;;;;;73.47;55.03;;;16.70;47.60;;;;;;4987628;28;90821;-70
2022/03/06 04:42:12;;;;;;;71.78;53.97;;;16.70;47.40;;;;;;4993596;28;90336;-69
2022/03/06 04:44:38;;;;;;;72.88;55.42;;;16.70;47.50;;;;;;4989908;28;90046;-70
2022/03/06 04:47:05;;;;;;;71.55;54.70;;;16.70;47.50;;;;;;4997955;28;90238;-70
2022/03/06 04:49:30;;;;;;;74.00;55.20;;;16.60;47.40;;;;;;4984087;28;89833;-70
2022/03/06 04:51:56;;;;;;;73.47;54.97;;;16.60;47.40;;;;;;4985497;28;90200;-70
2022/03/06 04:54:22;;;;;;;71.50;54.58;;;16.60;48.00;;;;;;4992769;28;89970;-70
2022/03/06 04:56:47;;;;;;;71.82;54.38;;;16.60;47.50;;;;;;4993651;28;89370;-70
2022/03/06 04:59:13;;;;;;;71.78;54.22;;;16.60;47.60;;;;;;4994840;28;89971;-70
2022/03/06 05:01:39;;;;;;;72.65;54.40;;;16.60;47.80;;;;;;4990620;28;90128;-71
2022/03/06 05:04:04;;;;;;;72.15;54.22;;;16.60;47.80;;;;;;4996856;28;90849;-70
2022/03/06 05:06:30;;;;;;;72.57;54.63;;;16.60;48.00;;;;;;4997606;28;89862;-70
2022/03/06 05:08:56;;;;;;;71.00;54.35;;;16.60;48.60;;;;;;4996311;28;90484;-70
2022/03/06 05:11:23;;;;;;;72.20;55.08;;;16.70;47.90;;;;;;4988067;28;90522;-70
2022/03/06 05:13:48;;;;;;;73.50;54.97;;;16.70;47.90;;;;;;4989586;28;89921;-70
2022/03/06 05:16:14;;;;;;;74.45;55.53;;;16.70;47.70;;;;;;4996155;28;91982;-70
2022/03/06 05:18:40;;;;;;;74.22;55.80;;;16.70;47.80;;;;;;4996064;28;90374;-70
2022/03/06 05:21:06;;;;;;;72.57;55.10;;;16.80;47.70;;;;;;4985622;28;89934;-70
2022/03/06 05:23:31;;;;;;;71.35;53.67;;;16.80;47.80;;;;;;4997568;28;90054;-69
2022/03/06 05:25:57;;;;;;;69.95;53.95;;;16.80;47.70;;;;;;4992431;28;94856;-71
2022/03/06 05:28:25;;;;;;;71.13;54.05;;;16.90;47.70;;;;;;4995943;28;90729;-70
2022/03/06 05:30:51;;;;;;;70.15;54.20;;;16.80;47.70;;;;;;4982501;28;90744;-70
2022/03/06 05:33:17;;;;;;;70.60;53.42;;;16.80;47.70;;;;;;4997150;28;90663;-70
2022/03/06 05:35:43;;;;;;;71.32;54.28;;;16.90;47.80;;;;;;4989045;28;90887;-70
2022/03/06 05:38:08;;;;;;;73.50;55.00;;;16.90;48.00;;;;;;4997277;28;89674;-70
2022/03/06 05:40:34;;;;;;;75.43;54.92;;;16.90;47.80;;;;;;5001527;28;89906;-70
2022/03/06 05:43:00;;;;;;;74.30;55.08;;;16.90;47.50;;;;;;4990958;28;90945;-70
2022/03/06 05:45:26;;;;;;;73.15;54.35;;;17.00;47.40;;;;;;4991213;28;90701;-70
2022/03/06 05:47:52;;;;;;;71.05;54.42;;;17.00;47.60;;;;;;4995649;28;89609;-70
2022/03/06 05:50:17;;;;;;;73.25;54.65;;;17.00;47.60;;;;;;4987442;28;90438;-71
2022/03/06 05:52:43;;;;;;;76.35;55.13;;;17.10;47.70;;;;;;4988005;28;91054;-72
2022/03/06 05:55:09;;;;;;;72.85;54.58;;;17.10;46.90;;;;;;4993114;28;89412;-73
2022/03/06 05:57:35;;;;;;;72.50;55.00;;;17.10;47.00;;;;;;4997344;28;90323;-72
2022/03/06 06:00:01;;;;;;;77.22;55.95;;;17.10;47.30;;;;;;4986599;28;92515;-73
2022/03/06 06:02:27;;;;;;;73.75;56.35;;;17.10;47.70;;;;;;4989366;28;89388;-73
2022/03/06 06:04:52;;;;;;;77.93;56.47;;;17.20;47.20;;;;;;4986770;28;90160;-73
2022/03/06 06:07:18;;;;;;;77.93;56.05;;;17.10;47.00;;;;;;4995354;28;89807;-72
2022/03/06 06:09:44;;;;;;;72.95;55.05;;;17.20;47.00;;;;;;4994449;28;89608;-72
2022/03/06 06:12:10;;;;;;;75.20;55.00;;;17.20;46.80;;;;;;5010696;27;92891;-72
2022/03/06 06:14:35;;;;;;;72.53;55.75;;;17.20;47.00;;;;;;4997461;28;89881;-73
2022/03/06 06:17:01;;;;;;;73.90;55.22;;;17.20;46.80;;;;;;4988284;28;91319;-73
2022/03/06 06:19:27;;;;;;;72.55;54.25;;;17.20;46.90;;;;;;4982863;28;89595;-73
2022/03/06 06:21:53;;;;;;;74.13;56.03;;;17.20;46.70;;;;;;4986235;28;91690;-73
2022/03/06 06:24:18;;;;;;;71.72;54.45;;;17.30;47.10;;;;;;4987426;28;90144;-72
2022/03/06 06:26:49;;;;;;;73.57;55.03;;;17.30;47.10;;;;;;4987898;28;90190;-71
2022/03/06 06:29:15;;;;;;;72.50;54.42;;;17.30;47.20;;;;;;4989668;28;89878;-70
2022/03/06 06:31:41;;;;;;;73.28;54.30;;;17.30;46.90;;;;;;4983253;28;89335;-71
2022/03/06 06:34:06;;;;;;;72.35;54.85;;;17.40;47.00;;;;;;4987464;28;89589;-70
2022/03/06 06:36:32;;;;;;;72.40;54.70;;;17.40;46.90;;;;;;4977731;28;91661;-70
2022/03/06 06:38:58;;;;;;;72.15;54.70;;;17.40;46.70;;;;;;4983333;28;90222;-70
2022/03/06 06:41:23;;;;;;;73.72;54.60;;;17.50;46.50;;;;;;4984988;28;91302;-70
2022/03/06 06:43:49;;;;;;;73.38;54.33;;;17.50;46.40;;;;;;4987989;28;90379;-70
2022/03/06 06:46:15;;;;;;;75.07;53.72;;;17.50;46.40;;;;;;4983023;28;95216;-70
2022/03/06 06:48:40;;;;;;;71.43;54.30;;;17.50;46.40;;;;;;4994892;28;93858;-70
2022/03/06 06:51:08;;;;;;;73.90;54.60;;;17.50;46.30;;;;;;4978532;28;90899;-70
2022/03/06 06:53:34;;;;;;;73.78;54.05;;;17.50;46.20;;;;;;4990204;28;90789;-70
2022/03/06 06:55:59;;;;;;;75.03;54.03;;;17.50;46.30;;;;;;4974294;28;92240;-70
2022/03/06 06:58:25;;;;;;;72.82;54.13;;;17.50;46.20;;;;;;4986341;28;89454;-72
2022/03/06 07:00:51;;;;;;;72.68;53.90;;;17.40;46.20;;;;;;4979942;28;90278;-71
2022/03/06 07:03:16;;;;;;;71.78;53.72;;;17.50;46.30;;;;;;4988397;28;92363;-71
2022/03/06 07:05:44;;;;;;;72.35;53.70;;;17.50;46.40;;;;;;4991423;28;91440;-71
2022/03/06 07:08:11;;;;;;;70.65;53.70;;;17.40;46.20;;;;;;4988375;28;90109;-71
2022/03/06 07:10:36;;;;;;;71.78;53.67;;;17.40;46.20;;;;;;4973849;28;97659;-71
2022/03/06 07:13:02;;;;;;;71.00;53.88;;;17.40;46.30;;;;;;4987840;28;89819;-71
2022/03/06 07:15:32;;;;;;;72.63;52.95;;;17.40;46.20;;;;;;4976540;28;89733;-71
2022/03/06 07:17:59;;;;;;;71.82;53.45;;;17.40;46.20;;;;;;4983451;27;89513;-71
2022/03/06 07:20:25;;;;;;;72.45;53.88;;;17.40;46.30;;;;;;4981523;28;90390;-71
2022/03/06 07:22:51;;;;;;;72.20;54.55;;;17.40;46.30;;;;;;4975590;28;88921;-72
2022/03/06 07:25:17;;;;;;;70.93;53.53;;;17.30;46.20;;;;;;4975044;28;89897;-72
2022/03/06 07:27:43;;;;;;;74.63;54.53;;;17.30;46.40;;;;;;4989068;28;89524;-72
2022/03/06 07:30:10;;;;;;;220.00;80.10;;;17.30;46.50;;;;;;4981421;28;92862;-74
2022/03/06 07:32:47;;;;;;;156.27;72.22;;;17.40;47.40;;;;;;4986323;28;95968;-72
2022/03/06 07:35:13;;;;;;;128.02;64.10;;;17.30;47.10;;;;;;4985579;28;90012;-73
2022/03/06 07:37:39;;;;;;;110.28;62.15;;;17.30;47.20;;;;;;4984408;28;89815;-73
2022/03/06 07:40:07;;;;;;;94.85;59.55;;;17.20;46.70;;;;;;4985237;28;89349;-72
2022/03/06 07:42:33;;;;;;;90.75;58.40;;;17.20;46.70;;;;;;4984297;28;89497;-72
2022/03/06 07:44:58;;;;;;;93.00;58.75;;;17.10;46.60;;;;;;4985530;28;89526;-72
2022/03/06 07:47:24;;;;;;;85.00;58.28;;;17.10;46.00;;;;;;4989414;28;88424;-72
2022/03/06 07:49:49;;;;;;;85.68;58.40;;;17.10;45.70;;;;;;4992121;28;90796;-72
2022/03/06 07:52:15;;;;;;;80.13;57.00;;;17.00;45.60;;;;;;4991666;28;91163;-72
2022/03/06 07:54:41;;;;;;;81.80;56.88;;;17.00;45.70;;;;;;4989603;28;90422;-72
2022/03/06 07:57:06;;;;;;;83.22;57.75;;;17.00;45.30;;;;;;4985753;28;89354;-72
2022/03/06 07:59:32;;;;;;;85.88;57.30;;;17.00;45.40;;;;;;4988812;28;90703;-73
2022/03/06 08:01:58;;;;;;;80.72;56.30;;;17.00;45.50;;;;;;4972423;28;94237;-72
2022/03/06 08:04:24;;;;;;;79.25;56.90;;;17.00;46.30;;;;;;4984225;28;90366;-73
2022/03/06 08:06:50;;;;;;;271.92;89.63;;;17.00;45.80;;;;;;4982468;28;90175;-72
2022/03/06 08:09:15;;;;;;;281.45;91.40;;;17.00;46.70;;;;;;4990759;28;91827;-73
2022/03/06 08:11:41;;;;;;;199.30;78.38;;;17.00;48.40;;;;;;4989845;28;91704;-73
2022/03/06 08:14:07;;;;;;;160.43;70.32;;;17.00;48.40;;;;;;4987649;28;90207;-75
2022/03/06 08:16:33;;;;;;;167.70;69.40;;;17.00;48.10;;;;;;4981292;28;92983;-72
2022/03/06 08:18:58;;;;;;;131.45;65.45;;;17.10;48.90;;;;;;4977096;28;93466;-73
2022/03/06 08:21:24;;;;;;;132.63;63.28;;;17.20;50.60;;;;;;4986105;28;91765;-72
2022/03/06 08:23:55;;;;;;;113.20;61.78;;;17.30;49.90;;;;;;4986000;28;94224;-73
2022/03/06 08:26:23;;;;;;;109.40;61.15;;;17.30;49.40;;;;;;4968228;28;90862;-73
2022/03/06 08:28:49;;;;;;;98.10;60.55;;;17.50;49.10;;;;;;5004660;27;92658;-72
2022/03/06 08:31:15;;;;;;;98.00;58.95;;;17.50;48.60;;;;;;4985339;28;89645;-74
2022/03/06 08:33:43;;;;;;;91.38;58.58;;;17.60;48.10;;;;;;4986807;28;89911;-74
2022/03/06 08:36:09;;;;;;;88.15;58.05;;;17.70;48.00;;;;;;4979249;28;97134;-74
2022/03/06 08:38:34;;;;;;;87.68;58.47;;;17.70;47.70;;;;;;4984356;28;89648;-70
2022/03/06 08:41:00;;;;;;;87.53;59.03;;;17.80;47.30;;;;;;4978921;28;90422;-72
2022/03/06 08:43:26;;;;;;;87.95;59.22;;;17.80;47.50;;;;;;4979405;28;91059;-75
2022/03/06 08:45:52;;;;;;;83.60;58.15;;;17.90;47.20;;;;;;4983527;28;94139;-76
2022/03/06 08:48:18;;;;;;;84.55;58.63;;;17.80;47.10;;;;;;4990302;28;92246;-77
2022/03/06 08:50:43;;;;;;;86.35;60.03;;;17.90;47.00;;;;;;4986293;28;90266;-76
2022/03/06 08:53:10;;;;;;;85.88;58.92;;;17.90;48.80;;;;;;4983400;28;90428;-76
2022/03/06 08:55:35;;;;;;;89.88;58.15;;;17.90;48.00;;;;;;4982372;28;89737;-75
2022/03/06 08:58:01;;;;;;;87.65;59.20;;;17.90;47.20;;;;;;4983217;28;92858;-75
2022/03/06 09:00:27;;;;;;;88.22;58.90;;;17.90;46.80;;;;;;5001926;28;89622;-75
2022/03/06 09:02:52;;;;;;;85.28;59.25;;;17.90;47.20;;;;;;4992322;28;89494;-75
2022/03/06 09:05:20;;;;;;;86.45;58.90;;;18.00;46.90;;;;;;4989634;28;94925;-74
2022/03/06 09:07:46;;;;;;;85.55;58.15;;;18.00;46.30;;;;;;4989425;28;94113;-74
2022/03/06 09:10:12;;;;;;;84.90;59.55;;;18.00;45.80;;;;;;4997207;28;90882;-75
2022/03/06 09:12:38;;;;;;;92.38;59.50;;;18.10;45.40;;;;;;4992627;28;89913;-74
2022/03/06 09:15:05;;;;;;;96.72;61.00;;;18.10;45.10;;;;;;4996990;28;92216;-75
2022/03/06 09:17:30;;;;;;;93.80;59.40;;;18.10;46.20;;;;;;4991606;28;94995;-75
2022/03/06 09:19:56;;;;;;;86.35;59.20;;;18.20;45.80;;;;;;4989010;28;93815;-74
2022/03/06 09:22:22;;;;;;;88.88;60.75;;;18.20;46.00;;;;;;4983171;28;90325;-75
2022/03/06 09:24:47;;;;;;;86.90;58.80;;;18.20;45.80;;;;;;4991401;28;89095;-75
2022/03/06 09:27:13;;;;;;;89.30;58.58;;;18.20;45.60;;;;;;4990312;28;90660;-74
2022/03/06 09:29:38;;;;;;;86.32;59.15;;;18.30;45.30;;;;;;4976541;28;89812;-74
2022/03/06 09:32:04;;;;;;;87.07;58.08;;;18.30;45.20;;;;;;4983023;28;91073;-74
2022/03/06 09:34:30;;;;;;;82.65;57.38;;;18.30;44.90;;;;;;4989601;28;90037;-74
2022/03/06 09:36:55;;;;;;;80.28;57.58;;;18.30;44.30;;;;;;4995108;27;89607;-73
2022/03/06 09:39:21;;;;;;;87.30;58.65;;;18.20;44.10;;;;;;4994795;28;90297;-74
2022/03/06 09:41:51;;;;;;;85.07;57.75;;;18.20;44.00;;;;;;4987129;28;90015;-77
2022/03/06 09:44:17;;;;;;;80.55;57.47;;;18.10;44.10;;;;;;4991113;28;90213;-74
2022/03/06 09:46:42;;;;;;;82.50;57.53;;;18.10;44.20;;;;;;5007819;27;93035;-74
2022/03/06 09:49:08;;;;;;;79.20;56.50;;;18.10;44.00;;;;;;4989731;28;94842;-74
2022/03/06 09:51:38;;;;;;;80.22;56.83;;;18.00;44.20;;;;;;4990294;28;89882;-74
2022/03/06 09:54:04;;;;;;;80.65;56.80;;;18.00;44.10;;;;;;4995444;28;89498;-74
2022/03/06 09:56:30;;;;;;;78.32;56.38;;;18.00;44.00;;;;;;4991849;28;90936;-74
2022/03/06 09:58:55;;;;;;;77.43;56.40;;;18.00;44.10;;;;;;4999849;28;90488;-74
2022/03/06 10:01:21;;;;;;;76.88;56.30;;;17.90;44.10;;;;;;4992352;28;89964;-74
2022/03/06 10:03:47;;;;;;;80.78;56.75;;;17.90;44.20;;;;;;4991289;28;89817;-74
2022/03/06 10:06:12;;;;;;;76.82;56.17;;;17.80;44.10;;;;;;4993540;28;91400;-74
2022/03/06 10:08:38;;;;;;;77.70;56.92;;;17.80;44.10;;;;;;4998051;28;90841;-74
2022/03/06 10:11:07;;;;;;;85.60;55.30;;;17.80;44.20;;;;;;4998053;28;89243;-74
2022/03/06 10:13:37;;;;;;;75.88;55.47;;;17.80;44.40;;;;;;4995053;28;89348;-73
2022/03/06 10:16:18;;;;;;;76.40;55.30;;;17.70;44.50;;;;;;4992998;28;91326;-74
2022/03/06 10:18:45;;;;;;;74.00;55.60;;;17.70;44.30;;;;;;4996440;28;93387;-74
2022/03/06 10:21:22;;;;;;;75.03;55.60;;;17.70;44.50;;;;;;4992110;28;91924;-74
2022/03/06 10:23:53;;;;;;;75.03;55.15;;;17.60;44.60;;;;;;4994375;28;90939;-74
2022/03/06 10:26:23;;;;;;;;;;;17.60;44.40;;;;;;4994101;27;94282;-74
2022/03/06 10:28:59;;;;;;;74.47;54.90;;;17.60;44.60;;;;;;5000066;28;91275;-74
2022/03/06 10:31:27;;;;;;;75.68;54.60;;;17.60;44.60;;;;;;4995922;28;92696;-74
2022/03/06 10:34:00;;;;;;;86.35;54.53;;;17.60;45.00;;;;;;4991902;28;90752;-74
2022/03/06 10:36:35;;;;;;;76.63;54.33;;;17.60;46.20;;;;;;5010900;27;91507;-74
2022/03/06 10:39:02;;;;;;;76.97;54.75;;;17.60;45.70;;;;;;5002334;28;91433;-74
2022/03/06 10:41:38;;;;;;;74.80;54.58;;;17.60;45.70;;;;;;4994534;28;89942;-74
2022/03/06 10:44:08;;;;;;;79.70;55.03;;;17.60;45.90;;;;;;4995858;28;89839;-74
2022/03/06 10:46:34;;;;;;;78.63;55.38;;;17.60;45.80;;;;;;4983376;28;95463;-74
2022/03/06 10:49:02;;;;;;;77.35;54.95;;;17.60;45.70;;;;;;4975674;28;93795;-75
2022/03/06 10:51:28;;;;;;;76.60;54.70;;;17.60;45.80;;;;;;4990178;28;89511;-78
2022/03/06 10:53:54;;;;;;;80.68;54.38;;;17.60;46.90;;;;;;4991277;28;89537;-74
2022/03/06 10:56:20;;;;;;;77.57;54.40;;;17.70;47.50;;;;;;4992915;28;90437;-74
2022/03/06 10:58:47;;;;;;;87.30;54.00;;;17.80;48.10;;;;;;4993067;28;90316;-72
2022/03/06 11:01:14;;;;;;;81.55;55.55;;;17.80;48.30;;;;;;4984884;28;97047;-72
2022/03/06 11:03:40;;;;;;;78.40;54.42;;;17.90;48.50;;;;;;4987781;28;91427;-72
2022/03/06 11:06:08;;;;;;;79.32;54.65;;;18.00;48.60;;;;;;4983665;28;91457;-75
2022/03/06 11:08:34;;;;;;;76.85;54.20;;;18.10;48.60;;;;;;4981887;28;90979;-74
2022/03/06 11:11:01;;;;;;;75.68;54.70;;;18.20;48.70;;;;;;4992426;28;90868;-76
2022/03/06 11:13:30;;;;;;;83.38;54.67;;;18.20;48.50;;;;;;4991175;28;90346;-72
2022/03/06 11:15:57;;;;;;;77.95;53.70;;;18.30;48.90;;;;;;4988259;28;90498;-72
2022/03/06 11:18:24;;;;;;;78.82;54.75;;;18.40;49.10;;;;;;4991108;28;92509;-75
2022/03/06 11:20:51;;;;;;;81.97;54.40;;;18.50;49.40;;;;;;4987526;28;90538;-75
2022/03/06 11:23:50;;;;;;;77.97;54.53;;;18.60;49.60;;;;;;4984525;28;90178;-75
2022/03/06 11:26:16;;;;;;;81.90;54.60;;;18.60;49.30;;;;;;4977990;28;90288;-77
2022/03/06 11:29:08;;;;;;;80.78;54.38;;;18.70;48.70;;;;;;4993624;28;89684;-74
2022/03/06 11:31:47;;;;;;;77.68;54.00;;;18.70;48.30;;;;;;4975732;28;92307;-76
2022/03/06 11:34:26;;;;;;;79.13;54.80;;;18.80;48.10;;;;;;4983108;28;90871;-75
2022/03/06 11:36:52;;;;;;;78.47;54.40;;;18.80;47.80;;;;;;4981844;28;92508;-74
2022/03/06 11:39:30;;;;;;;85.72;55.85;;;18.80;47.60;;;;;;4991940;28;90727;-73
2022/03/06 11:42:01;;;;;;;82.22;55.50;;;18.80;47.40;;;;;;4979912;28;89929;-73
2022/03/06 11:44:47;;;;;;;84.30;55.05;;;18.90;47.00;;;;;;4976221;28;90710;-73
2022/03/06 11:47:36;;;;;;;84.63;55.03;;;18.90;46.80;;;;;;4974627;28;89975;-73
2022/03/06 11:50:03;;;;;;;80.07;55.17;;;18.90;46.70;;;;;;4986445;28;91627;-73
2022/03/06 11:52:41;;;;;;;81.45;55.45;;;19.00;46.70;;;;;;4969461;28;90174;-73
2022/03/06 11:55:27;;;;;;;81.47;55.67;;;19.00;46.60;;;;;;4982102;27;91583;-73
2022/03/06 11:57:53;;;;;;;81.05;55.47;;;19.00;46.40;;;;;;4984007;28;89674;-73
2022/03/06 12:00:23;;;;;;;79.18;54.53;;;19.10;46.50;;;;;;4986401;28;90003;-70
2022/03/06 12:03:00;;;;;;;80.20;55.05;;;19.00;46.40;;;;;;4974775;28;91722;-73
2022/03/06 12:05:48;;;;;;;82.95;55.35;;;19.10;46.40;;;;;;4982517;28;89861;-73
2022/03/06 12:08:16;;;;;;;78.82;55.55;;;19.10;46.30;;;;;;4973893;28;90519;-73
2022/03/06 12:10:44;;;;;;;79.20;55.08;;;19.10;46.30;;;;;;4983642;28;90431;-71
2022/03/06 12:13:20;;;;;;;81.32;55.42;;;19.10;46.10;;;;;;4982614;28;90407;-70
2022/03/06 12:16:07;;;;;;;81.70;55.13;;;19.20;46.30;;;;;;4979034;28;93203;-70
2022/03/06 12:18:33;;;;;;;81.20;54.88;;;19.20;46.20;;;;;;4976776;28;90802;-71
2022/03/06 12:20:59;;;;;;;80.45;55.17;;;19.10;46.00;;;;;;4980119;28;90492;-72
2022/03/06 12:23:28;;;;;;;85.15;55.03;;;19.20;45.80;;;;;;4978670;28;91199;-72
2022/03/06 12:25:59;;;;;;;86.20;55.03;;;19.10;46.10;;;;;;4986769;28;91505;-72
2022/03/06 12:28:36;;;;;;;83.50;56.10;;;19.10;45.90;;;;;;4978374;28;92292;-72